Hauptseite
METAR-TAF:

METAR-TAF

Flughäfen :

Leconfield, England

Breite: 53-52-37N, Länge: 0-26-15W, Höhe: 7 m

Beobachtung

Neuester Wetterbericht von vor 50 Minuten, um 07:50 UTC
Wind 7 kt aus Nordost
Temperatur 8°C
Luftfeuchtigkeit 100%
Luftdruck 1028 hPa
Sichtweite: 7000 m
feuchter Dunst

METAR: EGXV 090750Z AUTO 04007KT 7000 BR OVC002/// 08/08 Q1028

Zeit: 09:40 (08:40 UTC)


TAF: fehlend

Wetterbeobachtungen und Prognosen von mehr als 4000 Flughäfen (METAR und TAF Bericht).

Die verfügbaren Stationen werden durch gelbe und rote Markierungen auf der Karte dargestellt.

Führen Sie die Maus auf sie, um den Namen der Station zu sehen.

Darauf klicken, um die Beobachtung von Wetterbeobachtungen und Prognosen zu sehen.

Um die Karte zu ändern : klicken Sie auf den grünen Tasten mit einem schwarzen Kreuz Zum Vergrößern, auf den grünen Button mit einem Gedankenstrich zu verkleinern, oder auf die grünen Pfeile für benachbarte Karten.


METAR-TAF: